Belchertown, Massachusetts
Current Conditions -  °F | °C
As of 4:58 PM on Monday 26 Jan 2015 (Local Time) from KCEF Reporting Station
Light Snow Light Snow  
Wind Chill:   Ceiling: 2000
Heat Index: 22°   Visibility: 5mi
Dew Point: 15°   Wind: 13mph
Humidity: 74%   Direction: 50°NE
Pressure: 29.98"   Gusts: NA
Location:  42.28°N, 72.4°W
Report Text: KCEF 262158Z 05011KT 5SM -SN BKN020 M06/M10 A2998 RMK AO2A SLP163 P0000 T10581097
Loading
Personal Weather Stations






























Interactive Weather Map New forecast layout! Learn more

10-Day Weather Forecast

Advertisements
Track Severe Weather on mobile